sensor_id;sensor_type;location;lat;lon;timestamp;temperature;humidity
54409;DHT22;40315;48.620;9.828;2023-04-24T00:02:14;10.30;99.90
54409;DHT22;40315;48.620;9.828;2023-04-24T00:04:43;10.40;99.90
54409;DHT22;40315;48.620;9.828;2023-04-24T00:07:13;10.50;99.90
54409;DHT22;40315;48.620;9.828;2023-04-24T00:09:42;10.50;99.90
54409;DHT22;40315;48.620;9.828;2023-04-24T00:12:11;10.40;99.90
54409;DHT22;40315;48.620;9.828;2023-04-24T00:14:38;10.40;99.90
54409;DHT22;40315;48.620;9.828;2023-04-24T00:17:09;10.40;99.90
54409;DHT22;40315;48.620;9.828;2023-04-24T00:19:36;10.40;99.90
54409;DHT22;40315;48.620;9.828;2023-04-24T00:22:02;10.30;99.90
54409;DHT22;40315;48.620;9.828;2023-04-24T00:24:30;10.40;99.90
54409;DHT22;40315;48.620;9.828;2023-04-24T00:26:57;10.70;99.90
54409;DHT22;40315;48.620;9.828;2023-04-24T00:29:24;10.30;99.90
54409;DHT22;40315;48.620;9.828;2023-04-24T00:31:54;10.30;99.90
54409;DHT22;40315;48.620;9.828;2023-04-24T00:34:22;10.30;99.90
54409;DHT22;40315;48.620;9.828;2023-04-24T00:36:49;10.30;99.90
54409;DHT22;40315;48.620;9.828;2023-04-24T00:39:17;10.20;99.90
54409;DHT22;40315;48.620;9.828;2023-04-24T00:41:45;10.90;99.90
54409;DHT22;40315;48.620;9.828;2023-04-24T00:44:12;10.30;99.90
54409;DHT22;40315;48.620;9.828;2023-04-24T00:46:40;10.20;99.90
54409;DHT22;40315;48.620;9.828;2023-04-24T00:49:07;10.10;99.90
54409;DHT22;40315;48.620;9.828;2023-04-24T00:51:38;10.10;99.90
54409;DHT22;40315;48.620;9.828;2023-04-24T00:54:06;10.10;99.90
54409;DHT22;40315;48.620;9.828;2023-04-24T00:56:33;10.20;99.90
54409;DHT22;40315;48.620;9.828;2023-04-24T00:59:00;10.10;99.90
54409;DHT22;40315;48.620;9.828;2023-04-24T01:04:10;10.10;99.90
54409;DHT22;40315;48.620;9.828;2023-04-24T01:06:43;10.10;99.90
54409;DHT22;40315;48.620;9.828;2023-04-24T01:09:12;10.10;99.90
54409;DHT22;40315;48.620;9.828;2023-04-24T01:11:41;10.10;99.90
54409;DHT22;40315;48.620;9.828;2023-04-24T01:14:09;10.10;99.90
54409;DHT22;40315;48.620;9.828;2023-04-24T01:16:36;10.10;99.90
54409;DHT22;40315;48.620;9.828;2023-04-24T01:19:05;10.00;99.90
54409;DHT22;40315;48.620;9.828;2023-04-24T01:21:37;10.00;99.90
54409;DHT22;40315;48.620;9.828;2023-04-24T01:24:07;10.20;99.90
54409;DHT22;40315;48.620;9.828;2023-04-24T01:26:34;10.00;99.90
54409;DHT22;40315;48.620;9.828;2023-04-24T01:29:01;10.00;99.90
54409;DHT22;40315;48.620;9.828;2023-04-24T01:31:28;10.30;99.90
54409;DHT22;40315;48.620;9.828;2023-04-24T01:33:56;9.90;99.90
54409;DHT22;40315;48.620;9.828;2023-04-24T01:36:27;9.90;99.90
54409;DHT22;40315;48.620;9.828;2023-04-24T01:38:55;9.90;99.90
54409;DHT22;40315;48.620;9.828;2023-04-24T01:41:26;9.90;99.90
54409;DHT22;40315;48.620;9.828;2023-04-24T01:43:54;10.20;99.90
54409;DHT22;40315;48.620;9.828;2023-04-24T01:52:55;10.00;99.90
54409;DHT22;40315;48.620;9.828;2023-04-24T01:55:22;10.10;99.90
54409;DHT22;40315;48.620;9.828;2023-04-24T01:57:52;10.10;99.90
54409;DHT22;40315;48.620;9.828;2023-04-24T02:00:21;10.10;99.90
54409;DHT22;40315;48.620;9.828;2023-04-24T02:02:48;10.10;99.90
54409;DHT22;40315;48.620;9.828;2023-04-24T02:05:18;10.10;99.90
54409;DHT22;40315;48.620;9.828;2023-04-24T02:07:45;10.10;99.90
54409;DHT22;40315;48.620;9.828;2023-04-24T02:10:12;10.00;99.90
54409;DHT22;40315;48.620;9.828;2023-04-24T02:12:42;10.10;99.90
54409;DHT22;40315;48.620;9.828;2023-04-24T02:15:13;10.10;99.90
54409;DHT22;40315;48.620;9.828;2023-04-24T02:17:40;10.10;99.90
54409;DHT22;40315;48.620;9.828;2023-04-24T02:20:07;10.20;99.90
54409;DHT22;40315;48.620;9.828;2023-04-24T02:22:35;10.10;99.90
54409;DHT22;40315;48.620;9.828;2023-04-24T02:25:02;10.10;99.90
54409;DHT22;40315;48.620;9.828;2023-04-24T02:27:29;10.10;99.90
54409;DHT22;40315;48.620;9.828;2023-04-24T02:29:56;10.10;99.90
54409;DHT22;40315;48.620;9.828;2023-04-24T02:32:25;9.80;99.90
54409;DHT22;40315;48.620;9.828;2023-04-24T02:34:52;11.20;99.90
54409;DHT22;40315;48.620;9.828;2023-04-24T02:37:19;10.10;99.90
54409;DHT22;40315;48.620;9.828;2023-04-24T02:39:46;10.10;99.90
54409;DHT22;40315;48.620;9.828;2023-04-24T02:42:13;10.20;99.90
54409;DHT22;40315;48.620;9.828;2023-04-24T02:44:43;11.70;99.90
54409;DHT22;40315;48.620;9.828;2023-04-24T02:47:12;9.90;99.90
54409;DHT22;40315;48.620;9.828;2023-04-24T02:49:41;10.00;99.90
54409;DHT22;40315;48.620;9.828;2023-04-24T02:52:08;10.00;99.90
54409;DHT22;40315;48.620;9.828;2023-04-24T02:54:35;9.90;99.90
54409;DHT22;40315;48.620;9.828;2023-04-24T02:57:04;10.00;99.90
54409;DHT22;40315;48.620;9.828;2023-04-24T02:59:31;10.10;99.90
54409;DHT22;40315;48.620;9.828;2023-04-24T03:01:59;10.20;99.90
54409;DHT22;40315;48.620;9.828;2023-04-24T03:04:26;10.00;99.90
54409;DHT22;40315;48.620;9.828;2023-04-24T03:06:54;10.10;99.90
54409;DHT22;40315;48.620;9.828;2023-04-24T03:09:24;10.30;99.90
54409;DHT22;40315;48.620;9.828;2023-04-24T03:11:51;9.80;99.90
54409;DHT22;40315;48.620;9.828;2023-04-24T03:14:18;10.10;99.90
54409;DHT22;40315;48.620;9.828;2023-04-24T03:16:45;10.00;99.90
54409;DHT22;40315;48.620;9.828;2023-04-24T03:19:12;10.00;99.90
54409;DHT22;40315;48.620;9.828;2023-04-24T03:21:51;9.90;99.90
54409;DHT22;40315;48.620;9.828;2023-04-24T03:24:20;10.00;99.90
54409;DHT22;40315;48.620;9.828;2023-04-24T03:26:48;9.90;99.90
54409;DHT22;40315;48.620;9.828;2023-04-24T03:29:36;9.90;99.90
54409;DHT22;40315;48.620;9.828;2023-04-24T03:32:06;9.90;99.90
54409;DHT22;40315;48.620;9.828;2023-04-24T03:34:34;10.00;99.90
54409;DHT22;40315;48.620;9.828;2023-04-24T03:37:03;10.00;99.90
54409;DHT22;40315;48.620;9.828;2023-04-24T03:39:33;9.90;99.90
54409;DHT22;40315;48.620;9.828;2023-04-24T03:42:00;9.90;99.90
54409;DHT22;40315;48.620;9.828;2023-04-24T03:44:39;9.90;99.90
54409;DHT22;40315;48.620;9.828;2023-04-24T03:47:06;10.90;99.90
54409;DHT22;40315;48.620;9.828;2023-04-24T03:49:37;10.00;99.90
54409;DHT22;40315;48.620;9.828;2023-04-24T03:52:04;10.00;99.90
54409;DHT22;40315;48.620;9.828;2023-04-24T03:54:33;10.00;99.90
54409;DHT22;40315;48.620;9.828;2023-04-24T03:57:00;9.90;99.90
54409;DHT22;40315;48.620;9.828;2023-04-24T03:59:31;9.90;99.90
54409;DHT22;40315;48.620;9.828;2023-04-24T04:02:08;9.90;99.90
54409;DHT22;40315;48.620;9.828;2023-04-24T04:04:35;10.10;99.90
54409;DHT22;40315;48.620;9.828;2023-04-24T04:07:02;9.90;99.90
54409;DHT22;40315;48.620;9.828;2023-04-24T04:09:31;9.90;99.90
54409;DHT22;40315;48.620;9.828;2023-04-24T04:12:00;9.80;99.90
54409;DHT22;40315;48.620;9.828;2023-04-24T04:14:27;9.80;99.90
54409;DHT22;40315;48.620;9.828;2023-04-24T04:16:54;9.80;99.90
54409;DHT22;40315;48.620;9.828;2023-04-24T04:19:21;9.80;99.90
54409;DHT22;40315;48.620;9.828;2023-04-24T04:21:49;9.80;99.90
54409;DHT22;40315;48.620;9.828;2023-04-24T04:24:44;9.80;99.90
54409;DHT22;40315;48.620;9.828;2023-04-24T04:27:13;8.40;99.90
54409;DHT22;40315;48.620;9.828;2023-04-24T04:29:50;9.90;99.90
54409;DHT22;40315;48.620;9.828;2023-04-24T04:32:17;9.90;99.90
54409;DHT22;40315;48.620;9.828;2023-04-24T04:34:46;9.90;99.90
54409;DHT22;40315;48.620;9.828;2023-04-24T04:37:15;9.90;99.90
54409;DHT22;40315;48.620;9.828;2023-04-24T04:40:09;9.90;99.90
54409;DHT22;40315;48.620;9.828;2023-04-24T04:42:44;10.00;99.90
54409;DHT22;40315;48.620;9.828;2023-04-24T04:45:12;10.20;99.90
54409;DHT22;40315;48.620;9.828;2023-04-24T04:47:59;10.00;99.90
54409;DHT22;40315;48.620;9.828;2023-04-24T04:50:28;10.10;99.90
54409;DHT22;40315;48.620;9.828;2023-04-24T04:53:01;10.00;99.90
54409;DHT22;40315;48.620;9.828;2023-04-24T04:55:34;9.90;99.90
54409;DHT22;40315;48.620;9.828;2023-04-24T04:58:15;10.00;99.90
54409;DHT22;40315;48.620;9.828;2023-04-24T05:00:45;10.10;99.90
54409;DHT22;40315;48.620;9.828;2023-04-24T05:03:32;10.10;99.90
54409;DHT22;40315;48.620;9.828;2023-04-24T05:06:06;10.10;99.90
54409;DHT22;40315;48.620;9.828;2023-04-24T05:08:37;10.10;99.90
54409;DHT22;40315;48.620;9.828;2023-04-24T05:11:07;10.10;99.90
54409;DHT22;40315;48.620;9.828;2023-04-24T05:13:37;10.10;99.90
54409;DHT22;40315;48.620;9.828;2023-04-24T05:16:07;10.10;99.90
54409;DHT22;40315;48.620;9.828;2023-04-24T05:18:39;10.10;99.90
54409;DHT22;40315;48.620;9.828;2023-04-24T05:21:09;10.20;99.90
54409;DHT22;40315;48.620;9.828;2023-04-24T05:23:39;10.20;99.90
54409;DHT22;40315;48.620;9.828;2023-04-24T05:26:06;10.30;99.90
54409;DHT22;40315;48.620;9.828;2023-04-24T05:31:10;10.30;99.90
54409;DHT22;40315;48.620;9.828;2023-04-24T05:33:38;10.40;99.90
54409;DHT22;40315;48.620;9.828;2023-04-24T05:36:07;10.40;99.90
54409;DHT22;40315;48.620;9.828;2023-04-24T05:38:35;10.70;99.90
54409;DHT22;40315;48.620;9.828;2023-04-24T05:41:02;10.40;99.90
54409;DHT22;40315;48.620;9.828;2023-04-24T05:43:29;10.10;99.90
54409;DHT22;40315;48.620;9.828;2023-04-24T05:48:25;8.50;99.90
54409;DHT22;40315;48.620;9.828;2023-04-24T05:50:52;8.20;99.90
54409;DHT22;40315;48.620;9.828;2023-04-24T05:53:19;8.20;99.90
54409;DHT22;40315;48.620;9.828;2023-04-24T05:55:47;8.00;99.90
54409;DHT22;40315;48.620;9.828;2023-04-24T05:58:14;8.20;99.90
54409;DHT22;40315;48.620;9.828;2023-04-24T06:00:41;8.10;99.90
54409;DHT22;40315;48.620;9.828;2023-04-24T06:03:10;8.10;99.90
54409;DHT22;40315;48.620;9.828;2023-04-24T06:05:37;8.20;99.90
54409;DHT22;40315;48.620;9.828;2023-04-24T06:08:07;8.40;99.90
54409;DHT22;40315;48.620;9.828;2023-04-24T06:10:38;8.10;99.90
54409;DHT22;40315;48.620;9.828;2023-04-24T06:13:07;8.00;99.90
54409;DHT22;40315;48.620;9.828;2023-04-24T06:15:37;8.00;99.90
54409;DHT22;40315;48.620;9.828;2023-04-24T06:18:06;8.10;99.90
54409;DHT22;40315;48.620;9.828;2023-04-24T06:20:37;8.30;99.90
54409;DHT22;40315;48.620;9.828;2023-04-24T06:23:04;8.30;99.90
54409;DHT22;40315;48.620;9.828;2023-04-24T06:25:33;8.60;99.90
54409;DHT22;40315;48.620;9.828;2023-04-24T06:28:00;8.50;99.90
54409;DHT22;40315;48.620;9.828;2023-04-24T06:30:29;8.70;99.90
54409;DHT22;40315;48.620;9.828;2023-04-24T06:32:58;9.00;99.90
54409;DHT22;40315;48.620;9.828;2023-04-24T06:35:25;8.90;99.90
54409;DHT22;40315;48.620;9.828;2023-04-24T06:37:56;8.90;99.90
54409;DHT22;40315;48.620;9.828;2023-04-24T06:40:23;8.70;99.90
54409;DHT22;40315;48.620;9.828;2023-04-24T06:42:50;8.70;99.90
54409;DHT22;40315;48.620;9.828;2023-04-24T06:45:18;8.70;99.90
54409;DHT22;40315;48.620;9.828;2023-04-24T06:47:45;8.80;99.90
54409;DHT22;40315;48.620;9.828;2023-04-24T06:50:12;8.90;99.90
54409;DHT22;40315;48.620;9.828;2023-04-24T06:52:39;8.90;99.90
54409;DHT22;40315;48.620;9.828;2023-04-24T06:55:08;9.00;99.90
54409;DHT22;40315;48.620;9.828;2023-04-24T06:57:39;9.00;99.90
54409;DHT22;40315;48.620;9.828;2023-04-24T07:00:07;9.10;99.90
54409;DHT22;40315;48.620;9.828;2023-04-24T07:02:34;9.10;99.90
54409;DHT22;40315;48.620;9.828;2023-04-24T07:05:02;9.30;99.90
54409;DHT22;40315;48.620;9.828;2023-04-24T07:07:29;9.20;99.90
54409;DHT22;40315;48.620;9.828;2023-04-24T07:09:56;9.40;99.90
54409;DHT22;40315;48.620;9.828;2023-04-24T07:12:28;9.40;99.90
54409;DHT22;40315;48.620;9.828;2023-04-24T07:14:55;9.60;99.90
54409;DHT22;40315;48.620;9.828;2023-04-24T07:17:22;9.70;99.90
54409;DHT22;40315;48.620;9.828;2023-04-24T07:19:51;10.20;99.90
54409;DHT22;40315;48.620;9.828;2023-04-24T07:22:18;10.40;99.90
54409;DHT22;40315;48.620;9.828;2023-04-24T07:24:47;10.10;99.90
54409;DHT22;40315;48.620;9.828;2023-04-24T07:27:14;10.20;99.90
54409;DHT22;40315;48.620;9.828;2023-04-24T07:29:42;10.10;99.90
54409;DHT22;40315;48.620;9.828;2023-04-24T07:32:09;10.30;99.90
54409;DHT22;40315;48.620;9.828;2023-04-24T07:34:36;10.50;99.90
54409;DHT22;40315;48.620;9.828;2023-04-24T07:37:04;10.60;99.90
54409;DHT22;40315;48.620;9.828;2023-04-24T07:39:33;11.50;99.90
54409;DHT22;40315;48.620;9.828;2023-04-24T07:42:25;11.70;99.90
54409;DHT22;40315;48.620;9.828;2023-04-24T07:44:53;12.00;99.90
54409;DHT22;40315;48.620;9.828;2023-04-24T07:47:23;11.80;99.90
54409;DHT22;40315;48.620;9.828;2023-04-24T07:49:50;11.30;99.90
54409;DHT22;40315;48.620;9.828;2023-04-24T07:52:19;11.30;99.90
54409;DHT22;40315;48.620;9.828;2023-04-24T07:54:46;11.00;99.90
54409;DHT22;40315;48.620;9.828;2023-04-24T07:57:13;11.00;99.90
54409;DHT22;40315;48.620;9.828;2023-04-24T07:59:42;11.40;99.90
54409;DHT22;40315;48.620;9.828;2023-04-24T08:02:13;11.50;99.90
54409;DHT22;40315;48.620;9.828;2023-04-24T08:04:43;11.10;99.90
54409;DHT22;40315;48.620;9.828;2023-04-24T08:07:11;11.30;99.90
54409;DHT22;40315;48.620;9.828;2023-04-24T08:09:40;11.30;99.90
54409;DHT22;40315;48.620;9.828;2023-04-24T08:12:07;11.20;99.90
54409;DHT22;40315;48.620;9.828;2023-04-24T08:14:34;11.10;99.90
54409;DHT22;40315;48.620;9.828;2023-04-24T08:17:01;10.70;99.90
54409;DHT22;40315;48.620;9.828;2023-04-24T08:19:30;10.80;99.90
54409;DHT22;40315;48.620;9.828;2023-04-24T08:21:57;10.50;99.90
54409;DHT22;40315;48.620;9.828;2023-04-24T08:24:24;10.50;99.90
54409;DHT22;40315;48.620;9.828;2023-04-24T08:26:51;10.50;99.90
54409;DHT22;40315;48.620;9.828;2023-04-24T08:29:19;10.50;99.90
54409;DHT22;40315;48.620;9.828;2023-04-24T08:31:47;10.40;99.90
54409;DHT22;40315;48.620;9.828;2023-04-24T08:34:14;10.70;99.90
54409;DHT22;40315;48.620;9.828;2023-04-24T08:36:44;11.60;99.90
54409;DHT22;40315;48.620;9.828;2023-04-24T08:39:12;9.50;99.90
54409;DHT22;40315;48.620;9.828;2023-04-24T08:41:41;9.50;99.90
54409;DHT22;40315;48.620;9.828;2023-04-24T08:44:09;9.50;99.90
54409;DHT22;40315;48.620;9.828;2023-04-24T08:46:37;9.70;99.90
54409;DHT22;40315;48.620;9.828;2023-04-24T08:51:31;9.40;99.90
54409;DHT22;40315;48.620;9.828;2023-04-24T08:54:03;9.40;99.90
54409;DHT22;40315;48.620;9.828;2023-04-24T08:56:34;9.30;99.90
54409;DHT22;40315;48.620;9.828;2023-04-24T08:59:04;9.70;99.90
54409;DHT22;40315;48.620;9.828;2023-04-24T09:01:32;10.10;99.90
54409;DHT22;40315;48.620;9.828;2023-04-24T09:04:02;10.40;99.90
54409;DHT22;40315;48.620;9.828;2023-04-24T09:06:31;10.60;99.90
54409;DHT22;40315;48.620;9.828;2023-04-24T09:09:10;10.70;99.90
54409;DHT22;40315;48.620;9.828;2023-04-24T09:11:38;10.70;99.90
54409;DHT22;40315;48.620;9.828;2023-04-24T09:14:05;10.90;99.90
54409;DHT22;40315;48.620;9.828;2023-04-24T09:16:33;11.30;99.90
54409;DHT22;40315;48.620;9.828;2023-04-24T09:19:00;11.50;99.90
54409;DHT22;40315;48.620;9.828;2023-04-24T09:21:32;11.50;99.90
54409;DHT22;40315;48.620;9.828;2023-04-24T09:24:00;11.90;99.90
54409;DHT22;40315;48.620;9.828;2023-04-24T09:26:31;11.90;99.90
54409;DHT22;40315;48.620;9.828;2023-04-24T09:28:59;12.00;99.90
54409;DHT22;40315;48.620;9.828;2023-04-24T09:31:27;11.80;99.90
54409;DHT22;40315;48.620;9.828;2023-04-24T09:33:57;12.00;99.90
54409;DHT22;40315;48.620;9.828;2023-04-24T09:36:28;12.10;99.90
54409;DHT22;40315;48.620;9.828;2023-04-24T09:38:58;12.50;99.90
54409;DHT22;40315;48.620;9.828;2023-04-24T09:41:26;12.90;99.90
54409;DHT22;40315;48.620;9.828;2023-04-24T09:43:56;13.20;99.90
54409;DHT22;40315;48.620;9.828;2023-04-24T09:46:29;13.30;99.90
54409;DHT22;40315;48.620;9.828;2023-04-24T09:48:57;13.40;99.90
54409;DHT22;40315;48.620;9.828;2023-04-24T09:51:34;13.70;99.90
54409;DHT22;40315;48.620;9.828;2023-04-24T09:54:03;14.00;99.90
54409;DHT22;40315;48.620;9.828;2023-04-24T09:56:33;14.20;99.90
54409;DHT22;40315;48.620;9.828;2023-04-24T09:59:08;14.20;99.90
54409;DHT22;40315;48.620;9.828;2023-04-24T10:01:35;14.60;99.90
54409;DHT22;40315;48.620;9.828;2023-04-24T10:04:04;14.30;99.90
54409;DHT22;40315;48.620;9.828;2023-04-24T10:06:35;13.90;99.90
54409;DHT22;40315;48.620;9.828;2023-04-24T10:09:02;12.80;99.90
54409;DHT22;40315;48.620;9.828;2023-04-24T10:11:30;13.00;99.90
54409;DHT22;40315;48.620;9.828;2023-04-24T10:13:57;12.80;99.90
54409;DHT22;40315;48.620;9.828;2023-04-24T10:16:27;13.00;99.90
54409;DHT22;40315;48.620;9.828;2023-04-24T10:18:54;12.80;99.90
54409;DHT22;40315;48.620;9.828;2023-04-24T10:21:26;13.30;99.90
54409;DHT22;40315;48.620;9.828;2023-04-24T10:23:53;13.20;99.90
54409;DHT22;40315;48.620;9.828;2023-04-24T10:26:24;12.70;99.90
54409;DHT22;40315;48.620;9.828;2023-04-24T10:28:52;12.60;99.90
54409;DHT22;40315;48.620;9.828;2023-04-24T10:31:21;12.60;99.90
54409;DHT22;40315;48.620;9.828;2023-04-24T10:33:53;11.80;99.90
54409;DHT22;40315;48.620;9.828;2023-04-24T10:36:22;11.80;99.90
54409;DHT22;40315;48.620;9.828;2023-04-24T10:38:53;11.20;99.90
54409;DHT22;40315;48.620;9.828;2023-04-24T10:41:26;11.10;99.90
54409;DHT22;40315;48.620;9.828;2023-04-24T10:44:04;11.20;99.90
54409;DHT22;40315;48.620;9.828;2023-04-24T10:46:32;11.30;99.90
54409;DHT22;40315;48.620;9.828;2023-04-24T10:49:04;11.10;99.90
54409;DHT22;40315;48.620;9.828;2023-04-24T10:51:45;11.00;99.90
54409;DHT22;40315;48.620;9.828;2023-04-24T10:54:26;11.00;99.90
54409;DHT22;40315;48.620;9.828;2023-04-24T10:56:53;10.90;99.90
54409;DHT22;40315;48.620;9.828;2023-04-24T10:59:42;11.10;99.90
54409;DHT22;40315;48.620;9.828;2023-04-24T11:02:09;11.20;99.90
54409;DHT22;40315;48.620;9.828;2023-04-24T11:04:36;11.40;99.90
54409;DHT22;40315;48.620;9.828;2023-04-24T11:07:06;11.70;99.90
54409;DHT22;40315;48.620;9.828;2023-04-24T11:09:33;12.10;99.90
54409;DHT22;40315;48.620;9.828;2023-04-24T11:12:07;12.70;99.90
54409;DHT22;40315;48.620;9.828;2023-04-24T11:15:02;13.10;99.90
54409;DHT22;40315;48.620;9.828;2023-04-24T11:17:33;13.00;99.90
54409;DHT22;40315;48.620;9.828;2023-04-24T11:20:01;12.90;99.90
54409;DHT22;40315;48.620;9.828;2023-04-24T11:22:33;12.90;99.90
54409;DHT22;40315;48.620;9.828;2023-04-24T11:25:01;12.80;99.90
54409;DHT22;40315;48.620;9.828;2023-04-24T11:27:32;12.40;99.90
54409;DHT22;40315;48.620;9.828;2023-04-24T11:30:07;12.10;99.90
54409;DHT22;40315;48.620;9.828;2023-04-24T11:32:35;11.90;99.90
54409;DHT22;40315;48.620;9.828;2023-04-24T11:35:04;11.90;99.90
54409;DHT22;40315;48.620;9.828;2023-04-24T11:37:37;11.70;99.90
54409;DHT22;40315;48.620;9.828;2023-04-24T11:40:06;11.30;99.90
54409;DHT22;40315;48.620;9.828;2023-04-24T11:42:37;11.50;99.90
54409;DHT22;40315;48.620;9.828;2023-04-24T11:45:10;11.60;99.90
54409;DHT22;40315;48.620;9.828;2023-04-24T11:47:37;11.60;99.90
54409;DHT22;40315;48.620;9.828;2023-04-24T11:50:06;11.80;99.90
54409;DHT22;40315;48.620;9.828;2023-04-24T11:52:37;11.70;99.90
54409;DHT22;40315;48.620;9.828;2023-04-24T11:55:07;11.60;99.90
54409;DHT22;40315;48.620;9.828;2023-04-24T11:57:34;11.70;99.90
54409;DHT22;40315;48.620;9.828;2023-04-24T12:00:03;11.50;99.90
54409;DHT22;40315;48.620;9.828;2023-04-24T12:02:39;13.10;99.90
54409;DHT22;40315;48.620;9.828;2023-04-24T12:05:09;11.60;99.90
54409;DHT22;40315;48.620;9.828;2023-04-24T12:07:41;11.80;99.90
54409;DHT22;40315;48.620;9.828;2023-04-24T12:10:11;11.80;99.90
54409;DHT22;40315;48.620;9.828;2023-04-24T12:12:39;11.90;99.90
54409;DHT22;40315;48.620;9.828;2023-04-24T12:15:07;12.40;99.90
54409;DHT22;40315;48.620;9.828;2023-04-24T12:17:35;12.70;99.90
54409;DHT22;40315;48.620;9.828;2023-04-24T12:20:06;11.80;99.90
54409;DHT22;40315;48.620;9.828;2023-04-24T12:22:44;11.40;99.90
54409;DHT22;40315;48.620;9.828;2023-04-24T12:25:13;11.20;99.90
54409;DHT22;40315;48.620;9.828;2023-04-24T12:27:44;11.30;99.90
54409;DHT22;40315;48.620;9.828;2023-04-24T12:30:13;11.50;99.90
54409;DHT22;40315;48.620;9.828;2023-04-24T12:32:41;11.30;99.90
54409;DHT22;40315;48.620;9.828;2023-04-24T12:35:11;11.30;99.90
54409;DHT22;40315;48.620;9.828;2023-04-24T12:37:38;11.30;99.90
54409;DHT22;40315;48.620;9.828;2023-04-24T12:40:07;11.30;99.90
54409;DHT22;40315;48.620;9.828;2023-04-24T12:42:42;11.40;99.90
54409;DHT22;40315;48.620;9.828;2023-04-24T12:45:10;11.60;99.90
54409;DHT22;40315;48.620;9.828;2023-04-24T12:47:38;11.50;99.90
54409;DHT22;40315;48.620;9.828;2023-04-24T12:50:06;11.40;99.90
54409;DHT22;40315;48.620;9.828;2023-04-24T12:52:35;11.50;99.90
54409;DHT22;40315;48.620;9.828;2023-04-24T12:55:03;11.70;99.90
54409;DHT22;40315;48.620;9.828;2023-04-24T12:57:31;11.50;99.90
54409;DHT22;40315;48.620;9.828;2023-04-24T12:59:58;11.70;99.90
54409;DHT22;40315;48.620;9.828;2023-04-24T13:02:27;12.10;99.90
54409;DHT22;40315;48.620;9.828;2023-04-24T13:04:58;12.30;99.90
54409;DHT22;40315;48.620;9.828;2023-04-24T13:07:26;12.50;99.90
54409;DHT22;40315;48.620;9.828;2023-04-24T13:09:55;12.70;99.90
54409;DHT22;40315;48.620;9.828;2023-04-24T13:12:23;12.90;99.90
54409;DHT22;40315;48.620;9.828;2023-04-24T13:14:51;13.00;99.90
54409;DHT22;40315;48.620;9.828;2023-04-24T13:17:20;12.50;99.90
54409;DHT22;40315;48.620;9.828;2023-04-24T13:19:50;11.90;99.90
54409;DHT22;40315;48.620;9.828;2023-04-24T13:22:17;11.50;99.90
54409;DHT22;40315;48.620;9.828;2023-04-24T13:24:45;11.80;99.90
54409;DHT22;40315;48.620;9.828;2023-04-24T13:27:18;13.80;99.90
54409;DHT22;40315;48.620;9.828;2023-04-24T13:29:45;12.60;99.90
54409;DHT22;40315;48.620;9.828;2023-04-24T13:32:12;12.80;99.90
54409;DHT22;40315;48.620;9.828;2023-04-24T13:34:39;12.90;99.90
54409;DHT22;40315;48.620;9.828;2023-04-24T13:37:06;12.70;99.90
54409;DHT22;40315;48.620;9.828;2023-04-24T13:39:33;12.90;99.90
54409;DHT22;40315;48.620;9.828;2023-04-24T13:42:00;12.80;99.90
54409;DHT22;40315;48.620;9.828;2023-04-24T13:44:29;13.10;99.90
54409;DHT22;40315;48.620;9.828;2023-04-24T13:46:57;13.20;99.90
54409;DHT22;40315;48.620;9.828;2023-04-24T13:49:27;13.30;99.90
54409;DHT22;40315;48.620;9.828;2023-04-24T13:51:55;12.90;99.90
54409;DHT22;40315;48.620;9.828;2023-04-24T13:54:22;13.10;99.90
54409;DHT22;40315;48.620;9.828;2023-04-24T13:56:51;13.00;99.90
54409;DHT22;40315;48.620;9.828;2023-04-24T13:59:19;13.00;99.90
54409;DHT22;40315;48.620;9.828;2023-04-24T14:01:48;13.10;99.90
54409;DHT22;40315;48.620;9.828;2023-04-24T14:04:15;13.00;99.90
54409;DHT22;40315;48.620;9.828;2023-04-24T14:06:44;12.80;99.90
54409;DHT22;40315;48.620;9.828;2023-04-24T14:09:11;12.90;99.90
54409;DHT22;40315;48.620;9.828;2023-04-24T14:11:38;13.00;99.90
54409;DHT22;40315;48.620;9.828;2023-04-24T14:14:06;13.10;99.90
54409;DHT22;40315;48.620;9.828;2023-04-24T14:16:33;12.60;99.90
54409;DHT22;40315;48.620;9.828;2023-04-24T14:19:02;12.50;99.90
54409;DHT22;40315;48.620;9.828;2023-04-24T14:21:32;12.50;99.90
54409;DHT22;40315;48.620;9.828;2023-04-24T14:23:59;12.30;99.90
54409;DHT22;40315;48.620;9.828;2023-04-24T14:26:26;12.50;99.90
54409;DHT22;40315;48.620;9.828;2023-04-24T14:28:53;12.10;99.90
54409;DHT22;40315;48.620;9.828;2023-04-24T14:31:20;11.50;99.90
54409;DHT22;40315;48.620;9.828;2023-04-24T14:33:47;11.60;99.90
54409;DHT22;40315;48.620;9.828;2023-04-24T14:36:16;11.80;99.90
54409;DHT22;40315;48.620;9.828;2023-04-24T14:38:43;11.70;99.90
54409;DHT22;40315;48.620;9.828;2023-04-24T14:41:10;12.00;99.90
54409;DHT22;40315;48.620;9.828;2023-04-24T14:43:37;11.80;99.90
54409;DHT22;40315;48.620;9.828;2023-04-24T14:46:04;11.60;99.90
54409;DHT22;40315;48.620;9.828;2023-04-24T14:48:32;11.10;99.90
54409;DHT22;40315;48.620;9.828;2023-04-24T14:50:59;11.20;99.90
54409;DHT22;40315;48.620;9.828;2023-04-24T14:53:27;11.40;99.90
54409;DHT22;40315;48.620;9.828;2023-04-24T14:58:23;11.50;99.90
54409;DHT22;40315;48.620;9.828;2023-04-24T15:00:50;11.30;99.90
54409;DHT22;40315;48.620;9.828;2023-04-24T15:03:20;11.30;99.90
54409;DHT22;40315;48.620;9.828;2023-04-24T15:05:47;12.20;99.90
54409;DHT22;40315;48.620;9.828;2023-04-24T15:08:17;11.30;99.90
54409;DHT22;40315;48.620;9.828;2023-04-24T15:10:45;11.40;99.90
54409;DHT22;40315;48.620;9.828;2023-04-24T15:13:13;11.60;99.90
54409;DHT22;40315;48.620;9.828;2023-04-24T15:15:40;11.80;99.90
54409;DHT22;40315;48.620;9.828;2023-04-24T15:18:10;11.70;99.90
54409;DHT22;40315;48.620;9.828;2023-04-24T15:20:37;11.50;99.90
54409;DHT22;40315;48.620;9.828;2023-04-24T15:23:05;11.30;99.90
54409;DHT22;40315;48.620;9.828;2023-04-24T15:25:32;11.10;99.90
54409;DHT22;40315;48.620;9.828;2023-04-24T15:28:01;10.90;99.90
54409;DHT22;40315;48.620;9.828;2023-04-24T15:30:28;11.00;99.90
54409;DHT22;40315;48.620;9.828;2023-04-24T15:32:59;10.90;99.90
54409;DHT22;40315;48.620;9.828;2023-04-24T15:35:26;10.90;99.90
54409;DHT22;40315;48.620;9.828;2023-04-24T15:37:53;11.00;99.90
54409;DHT22;40315;48.620;9.828;2023-04-24T15:40:20;11.10;99.90
54409;DHT22;40315;48.620;9.828;2023-04-24T15:42:47;11.30;99.90
54409;DHT22;40315;48.620;9.828;2023-04-24T15:45:16;11.50;99.90
54409;DHT22;40315;48.620;9.828;2023-04-24T15:47:44;11.30;99.90
54409;DHT22;40315;48.620;9.828;2023-04-24T15:50:11;11.10;99.90
54409;DHT22;40315;48.620;9.828;2023-04-24T15:52:44;10.90;99.90
54409;DHT22;40315;48.620;9.828;2023-04-24T15:55:12;10.80;99.90
54409;DHT22;40315;48.620;9.828;2023-04-24T15:57:39;10.90;99.90
54409;DHT22;40315;48.620;9.828;2023-04-24T16:00:07;10.90;99.90
54409;DHT22;40315;48.620;9.828;2023-04-24T16:02:39;11.00;99.90
54409;DHT22;40315;48.620;9.828;2023-04-24T16:05:08;11.30;99.90
54409;DHT22;40315;48.620;9.828;2023-04-24T16:07:38;11.20;99.90